sensor_id;sensor_type;location;lat;lon;timestamp;P1;durP1;ratioP1;P2;durP2;ratioP2
72904;SDS011;61048;52.162;4.516;2023-03-23T00:00:59;3.78;;;0.57;;
72904;SDS011;61048;52.162;4.516;2023-03-23T00:03:27;2.67;;;1.33;;
72904;SDS011;61048;52.162;4.516;2023-03-23T00:05:57;1.90;;;0.60;;
72904;SDS011;61048;52.162;4.516;2023-03-23T00:08:31;3.25;;;0.75;;
72904;SDS011;61048;52.162;4.516;2023-03-23T00:10:58;2.38;;;0.73;;
72904;SDS011;61048;52.162;4.516;2023-03-23T00:13:26;1.65;;;0.57;;
72904;SDS011;61048;52.162;4.516;2023-03-23T00:15:54;2.35;;;0.60;;
72904;SDS011;61048;52.162;4.516;2023-03-23T00:18:23;4.60;;;0.85;;
72904;SDS011;61048;52.162;4.516;2023-03-23T00:20:51;1.95;;;0.60;;
72904;SDS011;61048;52.162;4.516;2023-03-23T00:23:19;2.53;;;0.80;;
72904;SDS011;61048;52.162;4.516;2023-03-23T00:25:50;1.27;;;0.50;;
72904;SDS011;61048;52.162;4.516;2023-03-23T00:28:22;2.20;;;0.68;;
72904;SDS011;61048;52.162;4.516;2023-03-23T00:30:53;1.58;;;0.70;;
72904;SDS011;61048;52.162;4.516;2023-03-23T00:33:21;1.85;;;0.50;;
72904;SDS011;61048;52.162;4.516;2023-03-23T00:35:48;1.80;;;0.55;;
72904;SDS011;61048;52.162;4.516;2023-03-23T00:38:17;2.45;;;0.55;;
72904;SDS011;61048;52.162;4.516;2023-03-23T00:40:44;1.92;;;0.63;;
72904;SDS011;61048;52.162;4.516;2023-03-23T00:43:13;2.70;;;0.40;;
72904;SDS011;61048;52.162;4.516;2023-03-23T00:45:41;3.10;;;0.70;;
72904;SDS011;61048;52.162;4.516;2023-03-23T00:48:09;2.55;;;0.57;;
72904;SDS011;61048;52.162;4.516;2023-03-23T00:50:37;2.08;;;0.65;;
72904;SDS011;61048;52.162;4.516;2023-03-23T00:53:04;2.00;;;0.50;;
72904;SDS011;61048;52.162;4.516;2023-03-23T00:55:31;4.20;;;0.77;;
72904;SDS011;61048;52.162;4.516;2023-03-23T00:57:58;1.55;;;0.60;;
72904;SDS011;61048;52.162;4.516;2023-03-23T01:00:29;2.35;;;0.47;;
72904;SDS011;61048;52.162;4.516;2023-03-23T01:02:56;2.35;;;0.45;;
72904;SDS011;61048;52.162;4.516;2023-03-23T01:05:23;3.85;;;0.60;;
72904;SDS011;61048;52.162;4.516;2023-03-23T01:07:57;2.83;;;0.50;;
72904;SDS011;61048;52.162;4.516;2023-03-23T01:10:24;4.18;;;0.80;;
72904;SDS011;61048;52.162;4.516;2023-03-23T01:12:51;2.10;;;0.60;;
72904;SDS011;61048;52.162;4.516;2023-03-23T01:15:19;3.03;;;0.75;;
72904;SDS011;61048;52.162;4.516;2023-03-23T01:17:48;2.70;;;0.63;;
72904;SDS011;61048;52.162;4.516;2023-03-23T01:20:15;2.15;;;0.95;;
72904;SDS011;61048;52.162;4.516;2023-03-23T01:22:42;2.53;;;0.50;;
72904;SDS011;61048;52.162;4.516;2023-03-23T01:25:10;1.70;;;0.60;;
72904;SDS011;61048;52.162;4.516;2023-03-23T01:27:38;1.23;;;0.45;;
72904;SDS011;61048;52.162;4.516;2023-03-23T01:30:07;2.55;;;0.75;;
72904;SDS011;61048;52.162;4.516;2023-03-23T01:32:37;2.05;;;0.52;;
72904;SDS011;61048;52.162;4.516;2023-03-23T01:35:05;2.40;;;0.52;;
72904;SDS011;61048;52.162;4.516;2023-03-23T01:37:32;2.30;;;0.60;;
72904;SDS011;61048;52.162;4.516;2023-03-23T01:40:01;1.73;;;0.50;;
72904;SDS011;61048;52.162;4.516;2023-03-23T01:42:30;1.95;;;0.88;;
72904;SDS011;61048;52.162;4.516;2023-03-23T01:45:17;2.85;;;0.70;;
72904;SDS011;61048;52.162;4.516;2023-03-23T01:47:49;2.70;;;0.43;;
72904;SDS011;61048;52.162;4.516;2023-03-23T01:50:21;2.35;;;0.50;;
72904;SDS011;61048;52.162;4.516;2023-03-23T01:52:51;1.90;;;0.35;;
72904;SDS011;61048;52.162;4.516;2023-03-23T01:55:20;1.80;;;0.45;;
72904;SDS011;61048;52.162;4.516;2023-03-23T01:57:48;2.10;;;0.50;;
72904;SDS011;61048;52.162;4.516;2023-03-23T02:00:15;1.48;;;0.40;;
72904;SDS011;61048;52.162;4.516;2023-03-23T02:02:43;1.90;;;0.80;;
72904;SDS011;61048;52.162;4.516;2023-03-23T02:05:13;1.85;;;0.50;;
72904;SDS011;61048;52.162;4.516;2023-03-23T02:07:46;1.30;;;0.57;;
72904;SDS011;61048;52.162;4.516;2023-03-23T02:10:16;2.67;;;0.47;;
72904;SDS011;61048;52.162;4.516;2023-03-23T02:12:43;3.83;;;0.45;;
72904;SDS011;61048;52.162;4.516;2023-03-23T02:15:10;1.80;;;0.40;;
72904;SDS011;61048;52.162;4.516;2023-03-23T02:17:38;1.52;;;0.43;;
72904;SDS011;61048;52.162;4.516;2023-03-23T02:20:13;2.22;;;0.60;;
72904;SDS011;61048;52.162;4.516;2023-03-23T02:23:01;2.10;;;0.40;;
72904;SDS011;61048;52.162;4.516;2023-03-23T02:26:07;1.52;;;0.45;;
72904;SDS011;61048;52.162;4.516;2023-03-23T02:28:51;2.75;;;0.73;;
72904;SDS011;61048;52.162;4.516;2023-03-23T02:31:43;1.58;;;0.32;;
72904;SDS011;61048;52.162;4.516;2023-03-23T02:34:26;1.95;;;0.55;;
72904;SDS011;61048;52.162;4.516;2023-03-23T02:36:56;2.63;;;0.50;;
72904;SDS011;61048;52.162;4.516;2023-03-23T02:39:28;1.90;;;0.52;;
72904;SDS011;61048;52.162;4.516;2023-03-23T02:41:58;1.95;;;0.40;;
72904;SDS011;61048;52.162;4.516;2023-03-23T02:44:28;1.70;;;0.47;;
72904;SDS011;61048;52.162;4.516;2023-03-23T02:46:58;4.60;;;0.80;;
72904;SDS011;61048;52.162;4.516;2023-03-23T02:49:31;1.25;;;0.30;;
72904;SDS011;61048;52.162;4.516;2023-03-23T02:52:02;2.65;;;0.70;;
72904;SDS011;61048;52.162;4.516;2023-03-23T02:54:33;1.33;;;0.43;;
72904;SDS011;61048;52.162;4.516;2023-03-23T02:57:02;2.58;;;0.60;;
72904;SDS011;61048;52.162;4.516;2023-03-23T02:59:29;1.95;;;0.43;;
72904;SDS011;61048;52.162;4.516;2023-03-23T03:01:58;2.35;;;0.50;;
72904;SDS011;61048;52.162;4.516;2023-03-23T03:04:31;2.90;;;0.43;;
72904;SDS011;61048;52.162;4.516;2023-03-23T03:07:07;1.88;;;0.52;;
72904;SDS011;61048;52.162;4.516;2023-03-23T03:09:46;1.67;;;0.35;;
72904;SDS011;61048;52.162;4.516;2023-03-23T03:12:17;2.58;;;0.73;;
72904;SDS011;61048;52.162;4.516;2023-03-23T03:14:55;3.17;;;0.55;;
72904;SDS011;61048;52.162;4.516;2023-03-23T03:17:26;2.45;;;0.65;;
72904;SDS011;61048;52.162;4.516;2023-03-23T03:19:56;1.42;;;0.45;;
72904;SDS011;61048;52.162;4.516;2023-03-23T03:22:34;1.98;;;0.50;;
72904;SDS011;61048;52.162;4.516;2023-03-23T03:25:03;2.17;;;0.28;;
72904;SDS011;61048;52.162;4.516;2023-03-23T03:27:32;4.68;;;0.40;;
72904;SDS011;61048;52.162;4.516;2023-03-23T03:30:00;3.00;;;0.60;;
72904;SDS011;61048;52.162;4.516;2023-03-23T03:32:30;1.52;;;0.40;;
72904;SDS011;61048;52.162;4.516;2023-03-23T03:37:32;2.05;;;0.40;;
72904;SDS011;61048;52.162;4.516;2023-03-23T03:40:02;1.63;;;0.30;;
72904;SDS011;61048;52.162;4.516;2023-03-23T03:42:35;1.88;;;0.50;;
72904;SDS011;61048;52.162;4.516;2023-03-23T03:45:03;2.65;;;0.47;;
72904;SDS011;61048;52.162;4.516;2023-03-23T03:47:31;3.47;;;0.82;;
72904;SDS011;61048;52.162;4.516;2023-03-23T03:49:57;1.63;;;0.40;;
72904;SDS011;61048;52.162;4.516;2023-03-23T03:52:26;3.30;;;0.40;;
72904;SDS011;61048;52.162;4.516;2023-03-23T03:54:53;2.45;;;0.50;;
72904;SDS011;61048;52.162;4.516;2023-03-23T03:57:20;3.05;;;0.45;;
72904;SDS011;61048;52.162;4.516;2023-03-23T03:59:47;1.83;;;0.40;;
72904;SDS011;61048;52.162;4.516;2023-03-23T04:02:14;2.28;;;0.40;;
72904;SDS011;61048;52.162;4.516;2023-03-23T04:04:44;3.20;;;0.60;;
72904;SDS011;61048;52.162;4.516;2023-03-23T04:07:12;1.77;;;0.47;;
72904;SDS011;61048;52.162;4.516;2023-03-23T04:09:42;3.00;;;0.40;;
72904;SDS011;61048;52.162;4.516;2023-03-23T04:12:11;2.45;;;0.50;;
72904;SDS011;61048;52.162;4.516;2023-03-23T04:14:38;2.33;;;0.40;;
72904;SDS011;61048;52.162;4.516;2023-03-23T04:17:05;2.42;;;0.60;;
72904;SDS011;61048;52.162;4.516;2023-03-23T04:19:35;3.03;;;0.70;;
72904;SDS011;61048;52.162;4.516;2023-03-23T04:22:03;1.88;;;0.52;;
72904;SDS011;61048;52.162;4.516;2023-03-23T04:24:31;2.78;;;0.30;;
72904;SDS011;61048;52.162;4.516;2023-03-23T04:27:02;3.03;;;0.70;;
72904;SDS011;61048;52.162;4.516;2023-03-23T04:29:28;2.70;;;0.40;;
72904;SDS011;61048;52.162;4.516;2023-03-23T04:31:55;2.58;;;0.50;;
72904;SDS011;61048;52.162;4.516;2023-03-23T04:34:22;2.75;;;0.57;;
72904;SDS011;61048;52.162;4.516;2023-03-23T04:36:50;3.45;;;0.70;;
72904;SDS011;61048;52.162;4.516;2023-03-23T04:39:18;3.65;;;0.52;;
72904;SDS011;61048;52.162;4.516;2023-03-23T04:41:45;3.08;;;0.47;;
72904;SDS011;61048;52.162;4.516;2023-03-23T04:44:13;3.35;;;0.60;;
72904;SDS011;61048;52.162;4.516;2023-03-23T04:46:42;2.22;;;0.55;;
72904;SDS011;61048;52.162;4.516;2023-03-23T04:49:14;5.82;;;0.80;;
72904;SDS011;61048;52.162;4.516;2023-03-23T04:51:46;2.65;;;0.50;;
72904;SDS011;61048;52.162;4.516;2023-03-23T04:54:13;4.30;;;0.98;;
72904;SDS011;61048;52.162;4.516;2023-03-23T04:56:40;3.10;;;0.70;;
72904;SDS011;61048;52.162;4.516;2023-03-23T04:59:07;6.03;;;0.98;;
72904;SDS011;61048;52.162;4.516;2023-03-23T05:01:35;4.43;;;0.60;;
72904;SDS011;61048;52.162;4.516;2023-03-23T05:04:03;4.95;;;0.70;;
72904;SDS011;61048;52.162;4.516;2023-03-23T05:06:30;2.55;;;0.40;;
72904;SDS011;61048;52.162;4.516;2023-03-23T05:08:57;4.32;;;0.52;;
72904;SDS011;61048;52.162;4.516;2023-03-23T05:11:24;3.95;;;0.57;;
72904;SDS011;61048;52.162;4.516;2023-03-23T05:13:51;4.63;;;1.02;;
72904;SDS011;61048;52.162;4.516;2023-03-23T05:16:18;5.72;;;0.95;;
72904;SDS011;61048;52.162;4.516;2023-03-23T05:18:47;4.18;;;0.80;;
72904;SDS011;61048;52.162;4.516;2023-03-23T05:21:13;6.72;;;0.93;;
72904;SDS011;61048;52.162;4.516;2023-03-23T05:23:40;6.40;;;0.70;;
72904;SDS011;61048;52.162;4.516;2023-03-23T05:26:07;3.72;;;0.70;;
72904;SDS011;61048;52.162;4.516;2023-03-23T05:28:34;5.03;;;0.68;;
72904;SDS011;61048;52.162;4.516;2023-03-23T05:31:02;7.28;;;0.85;;
72904;SDS011;61048;52.162;4.516;2023-03-23T05:33:29;3.85;;;0.60;;
72904;SDS011;61048;52.162;4.516;2023-03-23T05:35:58;5.57;;;0.75;;
72904;SDS011;61048;52.162;4.516;2023-03-23T05:38:25;6.93;;;0.90;;
72904;SDS011;61048;52.162;4.516;2023-03-23T05:40:53;4.30;;;0.70;;
72904;SDS011;61048;52.162;4.516;2023-03-23T05:43:19;4.70;;;0.63;;
72904;SDS011;61048;52.162;4.516;2023-03-23T05:45:46;6.82;;;0.80;;
72904;SDS011;61048;52.162;4.516;2023-03-23T05:48:13;6.43;;;0.73;;
72904;SDS011;61048;52.162;4.516;2023-03-23T05:50:40;7.95;;;1.25;;
72904;SDS011;61048;52.162;4.516;2023-03-23T05:53:08;4.55;;;0.73;;
72904;SDS011;61048;52.162;4.516;2023-03-23T05:55:36;8.45;;;1.50;;
72904;SDS011;61048;52.162;4.516;2023-03-23T05:58:02;13.20;;;1.52;;
72904;SDS011;61048;52.162;4.516;2023-03-23T06:00:29;11.98;;;1.33;;
72904;SDS011;61048;52.162;4.516;2023-03-23T06:02:58;24.48;;;3.95;;
72904;SDS011;61048;52.162;4.516;2023-03-23T06:05:26;34.15;;;4.88;;
72904;SDS011;61048;52.162;4.516;2023-03-23T06:07:54;33.28;;;6.65;;
72904;SDS011;61048;52.162;4.516;2023-03-23T06:10:22;40.47;;;7.63;;
72904;SDS011;61048;52.162;4.516;2023-03-23T06:12:49;36.25;;;7.13;;
72904;SDS011;61048;52.162;4.516;2023-03-23T06:15:16;31.10;;;6.57;;
72904;SDS011;61048;52.162;4.516;2023-03-23T06:17:44;33.45;;;5.43;;
72904;SDS011;61048;52.162;4.516;2023-03-23T06:20:11;28.90;;;5.20;;
72904;SDS011;61048;52.162;4.516;2023-03-23T06:22:38;29.52;;;4.90;;
72904;SDS011;61048;52.162;4.516;2023-03-23T06:25:06;21.27;;;4.45;;
72904;SDS011;61048;52.162;4.516;2023-03-23T06:27:37;19.00;;;3.42;;
72904;SDS011;61048;52.162;4.516;2023-03-23T06:30:05;14.68;;;2.90;;
72904;SDS011;61048;52.162;4.516;2023-03-23T06:32:32;15.93;;;3.42;;
72904;SDS011;61048;52.162;4.516;2023-03-23T06:35:00;17.13;;;2.67;;
72904;SDS011;61048;52.162;4.516;2023-03-23T06:37:28;20.85;;;3.70;;
72904;SDS011;61048;52.162;4.516;2023-03-23T06:39:55;16.05;;;2.88;;
72904;SDS011;61048;52.162;4.516;2023-03-23T06:42:22;18.60;;;2.63;;
72904;SDS011;61048;52.162;4.516;2023-03-23T06:44:51;14.98;;;2.45;;
72904;SDS011;61048;52.162;4.516;2023-03-23T06:47:21;14.35;;;2.38;;
72904;SDS011;61048;52.162;4.516;2023-03-23T06:49:49;13.90;;;2.30;;
72904;SDS011;61048;52.162;4.516;2023-03-23T06:52:16;13.23;;;2.20;;
72904;SDS011;61048;52.162;4.516;2023-03-23T06:54:43;12.80;;;1.70;;
72904;SDS011;61048;52.162;4.516;2023-03-23T06:57:10;20.17;;;2.80;;
72904;SDS011;61048;52.162;4.516;2023-03-23T06:59:37;16.35;;;2.05;;
72904;SDS011;61048;52.162;4.516;2023-03-23T07:02:05;13.70;;;2.17;;
72904;SDS011;61048;52.162;4.516;2023-03-23T07:04:32;9.93;;;1.80;;
72904;SDS011;61048;52.162;4.516;2023-03-23T07:06:59;8.98;;;1.50;;
72904;SDS011;61048;52.162;4.516;2023-03-23T07:09:26;10.65;;;1.30;;
72904;SDS011;61048;52.162;4.516;2023-03-23T07:11:53;10.00;;;1.40;;
72904;SDS011;61048;52.162;4.516;2023-03-23T07:14:20;10.80;;;1.45;;
72904;SDS011;61048;52.162;4.516;2023-03-23T07:16:48;9.55;;;1.80;;
72904;SDS011;61048;52.162;4.516;2023-03-23T07:19:16;7.68;;;1.05;;
72904;SDS011;61048;52.162;4.516;2023-03-23T07:21:43;6.10;;;1.50;;
72904;SDS011;61048;52.162;4.516;2023-03-23T07:24:11;6.40;;;1.08;;
72904;SDS011;61048;52.162;4.516;2023-03-23T07:26:38;7.55;;;0.95;;
72904;SDS011;61048;52.162;4.516;2023-03-23T07:29:06;9.13;;;1.10;;
72904;SDS011;61048;52.162;4.516;2023-03-23T07:31:33;10.05;;;1.55;;
72904;SDS011;61048;52.162;4.516;2023-03-23T07:34:01;8.95;;;1.20;;
72904;SDS011;61048;52.162;4.516;2023-03-23T07:36:29;9.43;;;1.48;;
72904;SDS011;61048;52.162;4.516;2023-03-23T07:38:56;10.25;;;1.20;;
72904;SDS011;61048;52.162;4.516;2023-03-23T07:41:24;7.93;;;1.00;;
72904;SDS011;61048;52.162;4.516;2023-03-23T07:43:51;5.95;;;0.77;;
72904;SDS011;61048;52.162;4.516;2023-03-23T07:46:18;9.18;;;1.40;;
72904;SDS011;61048;52.162;4.516;2023-03-23T07:48:45;7.43;;;1.27;;
72904;SDS011;61048;52.162;4.516;2023-03-23T07:51:13;5.25;;;0.88;;
72904;SDS011;61048;52.162;4.516;2023-03-23T07:53:42;4.35;;;0.68;;
72904;SDS011;61048;52.162;4.516;2023-03-23T07:56:11;7.78;;;1.10;;
72904;SDS011;61048;52.162;4.516;2023-03-23T07:58:40;7.00;;;0.95;;
72904;SDS011;61048;52.162;4.516;2023-03-23T08:01:06;6.85;;;1.40;;
72904;SDS011;61048;52.162;4.516;2023-03-23T08:03:33;6.97;;;0.98;;
72904;SDS011;61048;52.162;4.516;2023-03-23T08:06:00;6.85;;;0.70;;
72904;SDS011;61048;52.162;4.516;2023-03-23T08:08:27;6.45;;;0.90;;
72904;SDS011;61048;52.162;4.516;2023-03-23T08:10:56;9.75;;;1.42;;
72904;SDS011;61048;52.162;4.516;2023-03-23T08:13:24;6.78;;;0.95;;
72904;SDS011;61048;52.162;4.516;2023-03-23T08:15:51;8.93;;;1.08;;
72904;SDS011;61048;52.162;4.516;2023-03-23T08:18:17;7.30;;;1.00;;
72904;SDS011;61048;52.162;4.516;2023-03-23T08:20:44;5.40;;;1.05;;
72904;SDS011;61048;52.162;4.516;2023-03-23T08:23:11;6.40;;;1.15;;
72904;SDS011;61048;52.162;4.516;2023-03-23T08:25:40;4.53;;;0.77;;
72904;SDS011;61048;52.162;4.516;2023-03-23T08:28:10;7.38;;;0.95;;
72904;SDS011;61048;52.162;4.516;2023-03-23T08:30:39;5.15;;;1.05;;
72904;SDS011;61048;52.162;4.516;2023-03-23T08:33:07;6.03;;;0.82;;
72904;SDS011;61048;52.162;4.516;2023-03-23T08:35:35;5.32;;;0.68;;
72904;SDS011;61048;52.162;4.516;2023-03-23T08:38:02;5.38;;;0.80;;
72904;SDS011;61048;52.162;4.516;2023-03-23T08:40:29;5.80;;;0.93;;
72904;SDS011;61048;52.162;4.516;2023-03-23T08:42:57;6.22;;;0.80;;
72904;SDS011;61048;52.162;4.516;2023-03-23T08:45:25;6.38;;;1.10;;
72904;SDS011;61048;52.162;4.516;2023-03-23T08:47:53;5.78;;;0.70;;
72904;SDS011;61048;52.162;4.516;2023-03-23T08:50:21;7.22;;;1.02;;
72904;SDS011;61048;52.162;4.516;2023-03-23T08:52:49;7.53;;;0.98;;
72904;SDS011;61048;52.162;4.516;2023-03-23T08:55:18;7.65;;;1.25;;
72904;SDS011;61048;52.162;4.516;2023-03-23T08:57:45;7.63;;;1.00;;
72904;SDS011;61048;52.162;4.516;2023-03-23T09:00:13;9.10;;;1.42;;
72904;SDS011;61048;52.162;4.516;2023-03-23T09:02:44;8.63;;;1.40;;
72904;SDS011;61048;52.162;4.516;2023-03-23T09:05:13;7.80;;;1.48;;
72904;SDS011;61048;52.162;4.516;2023-03-23T09:07:41;9.10;;;1.00;;
72904;SDS011;61048;52.162;4.516;2023-03-23T09:10:10;5.50;;;0.77;;
72904;SDS011;61048;52.162;4.516;2023-03-23T09:12:38;6.43;;;1.17;;
72904;SDS011;61048;52.162;4.516;2023-03-23T09:15:06;10.32;;;1.48;;
72904;SDS011;61048;52.162;4.516;2023-03-23T09:17:35;8.27;;;1.13;;
72904;SDS011;61048;52.162;4.516;2023-03-23T09:20:04;8.73;;;1.30;;
72904;SDS011;61048;52.162;4.516;2023-03-23T09:22:36;5.93;;;0.82;;
72904;SDS011;61048;52.162;4.516;2023-03-23T09:25:04;8.77;;;1.13;;
72904;SDS011;61048;52.162;4.516;2023-03-23T09:27:32;6.88;;;1.38;;
72904;SDS011;61048;52.162;4.516;2023-03-23T09:29:59;9.63;;;1.30;;
72904;SDS011;61048;52.162;4.516;2023-03-23T09:32:27;9.40;;;1.05;;
72904;SDS011;61048;52.162;4.516;2023-03-23T09:34:54;6.20;;;1.08;;
72904;SDS011;61048;52.162;4.516;2023-03-23T09:37:22;9.07;;;1.00;;
72904;SDS011;61048;52.162;4.516;2023-03-23T09:39:49;8.05;;;1.38;;
72904;SDS011;61048;52.162;4.516;2023-03-23T09:42:20;9.75;;;1.15;;
72904;SDS011;61048;52.162;4.516;2023-03-23T09:45:09;7.15;;;0.90;;
72904;SDS011;61048;52.162;4.516;2023-03-23T09:47:44;7.28;;;1.27;;
72904;SDS011;61048;52.162;4.516;2023-03-23T09:52:51;8.07;;;1.13;;
72904;SDS011;61048;52.162;4.516;2023-03-23T09:55:21;9.30;;;1.27;;
72904;SDS011;61048;52.162;4.516;2023-03-23T09:57:50;8.85;;;1.20;;
72904;SDS011;61048;52.162;4.516;2023-03-23T10:00:22;9.48;;;1.30;;
72904;SDS011;61048;52.162;4.516;2023-03-23T10:02:55;7.70;;;0.93;;
72904;SDS011;61048;52.162;4.516;2023-03-23T10:05:29;6.15;;;1.95;;
72904;SDS011;61048;52.162;4.516;2023-03-23T10:08:00;9.52;;;1.10;;
72904;SDS011;61048;52.162;4.516;2023-03-23T10:10:31;9.05;;;1.17;;
72904;SDS011;61048;52.162;4.516;2023-03-23T10:13:09;8.77;;;1.25;;
72904;SDS011;61048;52.162;4.516;2023-03-23T10:15:43;6.65;;;0.98;;
72904;SDS011;61048;52.162;4.516;2023-03-23T10:18:15;10.00;;;1.80;;
72904;SDS011;61048;52.162;4.516;2023-03-23T10:20:47;4.60;;;0.77;;
72904;SDS011;61048;52.162;4.516;2023-03-23T10:23:38;8.60;;;1.10;;
72904;SDS011;61048;52.162;4.516;2023-03-23T10:26:20;8.93;;;1.58;;
72904;SDS011;61048;52.162;4.516;2023-03-23T10:28:54;8.98;;;1.85;;
72904;SDS011;61048;52.162;4.516;2023-03-23T10:31:27;7.60;;;1.40;;
72904;SDS011;61048;52.162;4.516;2023-03-23T10:33:59;7.05;;;1.00;;
72904;SDS011;61048;52.162;4.516;2023-03-23T10:36:30;8.55;;;1.40;;
72904;SDS011;61048;52.162;4.516;2023-03-23T10:39:02;11.73;;;1.50;;
72904;SDS011;61048;52.162;4.516;2023-03-23T10:41:37;11.73;;;1.88;;
72904;SDS011;61048;52.162;4.516;2023-03-23T10:44:08;6.85;;;1.27;;
72904;SDS011;61048;52.162;4.516;2023-03-23T10:46:39;8.57;;;1.05;;
72904;SDS011;61048;52.162;4.516;2023-03-23T10:49:13;7.88;;;1.48;;
72904;SDS011;61048;52.162;4.516;2023-03-23T10:51:45;9.30;;;1.20;;
72904;SDS011;61048;52.162;4.516;2023-03-23T10:54:26;11.48;;;1.75;;
72904;SDS011;61048;52.162;4.516;2023-03-23T10:56:58;10.57;;;1.38;;
72904;SDS011;61048;52.162;4.516;2023-03-23T10:59:26;10.10;;;1.77;;
72904;SDS011;61048;52.162;4.516;2023-03-23T11:01:56;9.63;;;1.55;;
72904;SDS011;61048;52.162;4.516;2023-03-23T11:04:27;10.20;;;2.03;;
72904;SDS011;61048;52.162;4.516;2023-03-23T11:06:58;13.27;;;1.88;;
72904;SDS011;61048;52.162;4.516;2023-03-23T11:09:35;8.55;;;1.55;;
72904;SDS011;61048;52.162;4.516;2023-03-23T11:12:02;10.27;;;1.92;;
72904;SDS011;61048;52.162;4.516;2023-03-23T11:14:31;8.90;;;1.58;;
72904;SDS011;61048;52.162;4.516;2023-03-23T11:16:59;11.73;;;1.40;;
72904;SDS011;61048;52.162;4.516;2023-03-23T11:19:28;9.88;;;1.38;;
72904;SDS011;61048;52.162;4.516;2023-03-23T11:21:58;7.53;;;1.35;;
72904;SDS011;61048;52.162;4.516;2023-03-23T11:24:31;8.52;;;1.10;;
72904;SDS011;61048;52.162;4.516;2023-03-23T11:27:01;10.80;;;1.42;;
72904;SDS011;61048;52.162;4.516;2023-03-23T11:29:32;6.32;;;1.13;;
72904;SDS011;61048;52.162;4.516;2023-03-23T11:32:03;9.50;;;1.10;;
72904;SDS011;61048;52.162;4.516;2023-03-23T11:34:34;6.38;;;1.02;;
72904;SDS011;61048;52.162;4.516;2023-03-23T11:37:07;8.82;;;1.52;;
72904;SDS011;61048;52.162;4.516;2023-03-23T11:39:47;7.95;;;1.23;;
72904;SDS011;61048;52.162;4.516;2023-03-23T11:42:18;8.88;;;1.20;;
72904;SDS011;61048;52.162;4.516;2023-03-23T11:44:46;8.30;;;1.40;;
72904;SDS011;61048;52.162;4.516;2023-03-23T11:47:16;7.97;;;1.30;;
72904;SDS011;61048;52.162;4.516;2023-03-23T11:49:47;7.00;;;1.48;;
72904;SDS011;61048;52.162;4.516;2023-03-23T11:52:21;10.02;;;1.48;;
72904;SDS011;61048;52.162;4.516;2023-03-23T11:54:54;5.70;;;1.15;;
72904;SDS011;61048;52.162;4.516;2023-03-23T11:57:27;8.77;;;1.23;;
72904;SDS011;61048;52.162;4.516;2023-03-23T11:59:55;5.82;;;0.77;;
72904;SDS011;61048;52.162;4.516;2023-03-23T12:05:30;5.38;;;1.23;;
72904;SDS011;61048;52.162;4.516;2023-03-23T12:08:05;7.35;;;1.15;;
72904;SDS011;61048;52.162;4.516;2023-03-23T12:10:58;6.38;;;0.80;;
72904;SDS011;61048;52.162;4.516;2023-03-23T12:13:42;6.80;;;1.15;;
72904;SDS011;61048;52.162;4.516;2023-03-23T12:16:22;9.32;;;1.30;;
72904;SDS011;61048;52.162;4.516;2023-03-23T12:21:31;7.82;;;1.17;;
72904;SDS011;61048;52.162;4.516;2023-03-23T12:24:05;6.40;;;0.85;;
72904;SDS011;61048;52.162;4.516;2023-03-23T12:26:43;5.18;;;0.95;;
72904;SDS011;61048;52.162;4.516;2023-03-23T12:29:23;7.22;;;1.05;;
72904;SDS011;61048;52.162;4.516;2023-03-23T12:34:54;5.20;;;0.73;;
72904;SDS011;61048;52.162;4.516;2023-03-23T12:37:36;4.15;;;0.93;;
72904;SDS011;61048;52.162;4.516;2023-03-23T12:42:51;6.60;;;0.93;;
72904;SDS011;61048;52.162;4.516;2023-03-23T12:45:37;4.82;;;0.98;;
72904;SDS011;61048;52.162;4.516;2023-03-23T12:48:18;5.78;;;0.77;;
72904;SDS011;61048;52.162;4.516;2023-03-23T12:51:00;6.82;;;1.58;;
72904;SDS011;61048;52.162;4.516;2023-03-23T12:53:34;6.80;;;0.77;;
72904;SDS011;61048;52.162;4.516;2023-03-23T12:56:10;6.15;;;1.00;;
72904;SDS011;61048;52.162;4.516;2023-03-23T12:58:44;4.35;;;1.02;;
72904;SDS011;61048;52.162;4.516;2023-03-23T13:01:12;5.72;;;0.82;;
72904;SDS011;61048;52.162;4.516;2023-03-23T13:03:47;6.05;;;0.73;;
72904;SDS011;61048;52.162;4.516;2023-03-23T13:06:21;6.53;;;0.80;;
72904;SDS011;61048;52.162;4.516;2023-03-23T13:08:55;7.03;;;1.20;;
72904;SDS011;61048;52.162;4.516;2023-03-23T13:11:27;6.20;;;1.02;;
72904;SDS011;61048;52.162;4.516;2023-03-23T13:14:01;5.18;;;0.73;;
72904;SDS011;61048;52.162;4.516;2023-03-23T13:16:39;8.93;;;1.40;;
72904;SDS011;61048;52.162;4.516;2023-03-23T13:19:17;7.25;;;1.20;;
72904;SDS011;61048;52.162;4.516;2023-03-23T13:21:52;9.48;;;1.33;;
72904;SDS011;61048;52.162;4.516;2023-03-23T13:24:24;6.57;;;1.00;;
72904;SDS011;61048;52.162;4.516;2023-03-23T13:26:54;5.75;;;1.13;;
72904;SDS011;61048;52.162;4.516;2023-03-23T13:29:24;7.38;;;1.00;;
72904;SDS011;61048;52.162;4.516;2023-03-23T13:31:52;6.28;;;1.20;;
72904;SDS011;61048;52.162;4.516;2023-03-23T13:34:32;7.38;;;1.60;;
72904;SDS011;61048;52.162;4.516;2023-03-23T13:37:00;8.73;;;0.98;;
72904;SDS011;61048;52.162;4.516;2023-03-23T13:39:29;6.00;;;0.80;;
72904;SDS011;61048;52.162;4.516;2023-03-23T13:41:59;6.68;;;0.82;;
72904;SDS011;61048;52.162;4.516;2023-03-23T13:44:40;9.73;;;1.67;;
72904;SDS011;61048;52.162;4.516;2023-03-23T13:47:16;7.85;;;1.25;;
72904;SDS011;61048;52.162;4.516;2023-03-23T13:49:54;7.32;;;1.05;;
72904;SDS011;61048;52.162;4.516;2023-03-23T13:52:23;5.05;;;1.05;;
72904;SDS011;61048;52.162;4.516;2023-03-23T13:54:51;7.63;;;1.20;;
72904;SDS011;61048;52.162;4.516;2023-03-23T13:57:36;5.63;;;1.20;;
72904;SDS011;61048;52.162;4.516;2023-03-23T14:00:27;7.55;;;0.88;;
72904;SDS011;61048;52.162;4.516;2023-03-23T14:03:02;8.90;;;1.42;;
72904;SDS011;61048;52.162;4.516;2023-03-23T14:05:34;7.30;;;1.52;;
72904;SDS011;61048;52.162;4.516;2023-03-23T14:08:09;5.85;;;0.90;;
72904;SDS011;61048;52.162;4.516;2023-03-23T14:10:41;6.72;;;0.88;;
72904;SDS011;61048;52.162;4.516;2023-03-23T14:13:15;5.70;;;1.20;;
72904;SDS011;61048;52.162;4.516;2023-03-23T14:15:54;7.32;;;1.25;;
72904;SDS011;61048;52.162;4.516;2023-03-23T14:18:25;6.15;;;0.90;;
72904;SDS011;61048;52.162;4.516;2023-03-23T14:20:57;4.95;;;0.85;;
72904;SDS011;61048;52.162;4.516;2023-03-23T14:23:26;6.60;;;1.15;;
72904;SDS011;61048;52.162;4.516;2023-03-23T14:25:56;9.00;;;1.65;;
72904;SDS011;61048;52.162;4.516;2023-03-23T14:28:36;6.95;;;0.90;;
72904;SDS011;61048;52.162;4.516;2023-03-23T14:31:08;5.15;;;0.88;;
72904;SDS011;61048;52.162;4.516;2023-03-23T14:33:43;5.72;;;0.98;;
72904;SDS011;61048;52.162;4.516;2023-03-23T14:36:10;6.35;;;0.65;;
72904;SDS011;61048;52.162;4.516;2023-03-23T14:38:37;8.75;;;1.13;;
72904;SDS011;61048;52.162;4.516;2023-03-23T14:41:04;5.45;;;0.85;;
72904;SDS011;61048;52.162;4.516;2023-03-23T14:43:32;5.63;;;1.15;;
72904;SDS011;61048;52.162;4.516;2023-03-23T14:46:03;9.65;;;1.40;;
72904;SDS011;61048;52.162;4.516;2023-03-23T14:48:34;9.00;;;1.40;;
72904;SDS011;61048;52.162;4.516;2023-03-23T14:51:03;7.05;;;1.20;;
72904;SDS011;61048;52.162;4.516;2023-03-23T14:53:33;6.20;;;1.50;;
72904;SDS011;61048;52.162;4.516;2023-03-23T14:56:03;7.55;;;1.20;;
72904;SDS011;61048;52.162;4.516;2023-03-23T14:58:35;7.20;;;1.08;;
72904;SDS011;61048;52.162;4.516;2023-03-23T15:01:03;6.00;;;0.70;;
72904;SDS011;61048;52.162;4.516;2023-03-23T15:03:35;9.30;;;1.27;;
72904;SDS011;61048;52.162;4.516;2023-03-23T15:06:07;7.13;;;1.20;;
72904;SDS011;61048;52.162;4.516;2023-03-23T15:08:38;5.78;;;1.15;;
72904;SDS011;61048;52.162;4.516;2023-03-23T15:11:07;7.18;;;1.15;;
72904;SDS011;61048;52.162;4.516;2023-03-23T15:13:41;6.93;;;1.27;;
72904;SDS011;61048;52.162;4.516;2023-03-23T15:16:13;8.18;;;1.80;;
72904;SDS011;61048;52.162;4.516;2023-03-23T15:18:47;8.27;;;1.33;;
72904;SDS011;61048;52.162;4.516;2023-03-23T15:21:23;8.70;;;1.52;;